sensor_id;sensor_type;location;lat;lon;timestamp;temperature;humidity
12557;DHT22;6344;49.932;8.308;2022-08-21T00:00:13;16.80;66.90
12557;DHT22;6344;49.932;8.308;2022-08-21T00:02:45;16.80;59.20
12557;DHT22;6344;49.932;8.308;2022-08-21T00:05:12;16.80;59.80
12557;DHT22;6344;49.932;8.308;2022-08-21T00:07:40;16.90;43.40
12557;DHT22;6344;49.932;8.308;2022-08-21T00:10:08;16.90;36.90
12557;DHT22;6344;49.932;8.308;2022-08-21T00:12:35;16.90;40.80
12557;DHT22;6344;49.932;8.308;2022-08-21T00:15:03;17.00;40.20
12557;DHT22;6344;49.932;8.308;2022-08-21T00:17:30;16.90;43.50
12557;DHT22;6344;49.932;8.308;2022-08-21T00:19:57;16.70;64.80
12557;DHT22;6344;49.932;8.308;2022-08-21T00:22:23;16.70;75.50
12557;DHT22;6344;49.932;8.308;2022-08-21T00:24:51;16.60;76.70
12557;DHT22;6344;49.932;8.308;2022-08-21T00:27:18;16.30;99.90
12557;DHT22;6344;49.932;8.308;2022-08-21T00:29:45;16.20;99.90
12557;DHT22;6344;49.932;8.308;2022-08-21T00:32:11;16.10;99.90
12557;DHT22;6344;49.932;8.308;2022-08-21T00:34:38;16.10;99.90
12557;DHT22;6344;49.932;8.308;2022-08-21T00:37:05;16.00;99.90
12557;DHT22;6344;49.932;8.308;2022-08-21T00:39:33;16.00;99.90
12557;DHT22;6344;49.932;8.308;2022-08-21T00:42:01;16.10;99.90
12557;DHT22;6344;49.932;8.308;2022-08-21T00:44:28;16.00;99.90
12557;DHT22;6344;49.932;8.308;2022-08-21T00:46:56;16.00;99.90
12557;DHT22;6344;49.932;8.308;2022-08-21T00:49:23;16.00;99.90
12557;DHT22;6344;49.932;8.308;2022-08-21T00:51:51;16.00;99.90
12557;DHT22;6344;49.932;8.308;2022-08-21T00:54:21;16.00;99.90
12557;DHT22;6344;49.932;8.308;2022-08-21T00:56:54;15.90;99.90
12557;DHT22;6344;49.932;8.308;2022-08-21T00:59:23;15.80;99.90
12557;DHT22;6344;49.932;8.308;2022-08-21T01:01:51;15.60;99.90
12557;DHT22;6344;49.932;8.308;2022-08-21T01:04:18;15.40;99.90
12557;DHT22;6344;49.932;8.308;2022-08-21T01:06:45;15.40;99.90
12557;DHT22;6344;49.932;8.308;2022-08-21T01:09:13;15.50;99.90
12557;DHT22;6344;49.932;8.308;2022-08-21T01:11:40;15.60;99.90
12557;DHT22;6344;49.932;8.308;2022-08-21T01:14:08;15.70;99.90
12557;DHT22;6344;49.932;8.308;2022-08-21T01:16:40;15.90;99.90
12557;DHT22;6344;49.932;8.308;2022-08-21T01:19:09;15.80;99.90
12557;DHT22;6344;49.932;8.308;2022-08-21T01:21:37;15.90;99.90
12557;DHT22;6344;49.932;8.308;2022-08-21T01:24:05;15.80;99.90
12557;DHT22;6344;49.932;8.308;2022-08-21T01:26:34;15.80;99.90
12557;DHT22;6344;49.932;8.308;2022-08-21T01:29:06;15.70;99.90
12557;DHT22;6344;49.932;8.308;2022-08-21T01:31:33;15.60;99.90
12557;DHT22;6344;49.932;8.308;2022-08-21T01:34:00;15.70;99.90
12557;DHT22;6344;49.932;8.308;2022-08-21T01:36:27;15.70;99.90
12557;DHT22;6344;49.932;8.308;2022-08-21T01:38:55;15.70;99.90
12557;DHT22;6344;49.932;8.308;2022-08-21T01:41:22;15.80;99.90
12557;DHT22;6344;49.932;8.308;2022-08-21T01:43:49;15.60;99.90
12557;DHT22;6344;49.932;8.308;2022-08-21T01:46:16;15.60;99.90
12557;DHT22;6344;49.932;8.308;2022-08-21T01:48:43;15.70;99.90
12557;DHT22;6344;49.932;8.308;2022-08-21T01:51:10;15.80;99.90
12557;DHT22;6344;49.932;8.308;2022-08-21T01:53:37;15.90;99.90
12557;DHT22;6344;49.932;8.308;2022-08-21T01:56:08;15.70;99.90
12557;DHT22;6344;49.932;8.308;2022-08-21T01:58:35;15.40;99.90
12557;DHT22;6344;49.932;8.308;2022-08-21T02:01:03;15.30;99.90
12557;DHT22;6344;49.932;8.308;2022-08-21T02:03:30;15.30;99.90
12557;DHT22;6344;49.932;8.308;2022-08-21T02:05:57;15.20;99.90
12557;DHT22;6344;49.932;8.308;2022-08-21T02:08:23;15.00;99.90
12557;DHT22;6344;49.932;8.308;2022-08-21T02:10:51;15.00;99.90
12557;DHT22;6344;49.932;8.308;2022-08-21T02:16:42;14.80;1.00
12557;DHT22;6344;49.932;8.308;2022-08-21T02:19:09;14.90;1.00
12557;DHT22;6344;49.932;8.308;2022-08-21T02:21:36;14.90;1.00
12557;DHT22;6344;49.932;8.308;2022-08-21T02:24:04;14.90;1.00
12557;DHT22;6344;49.932;8.308;2022-08-21T02:26:30;14.90;1.00
12557;DHT22;6344;49.932;8.308;2022-08-21T02:28:57;14.90;1.00
12557;DHT22;6344;49.932;8.308;2022-08-21T02:31:24;14.80;1.00
12557;DHT22;6344;49.932;8.308;2022-08-21T02:33:52;14.70;1.00
12557;DHT22;6344;49.932;8.308;2022-08-21T02:36:19;14.70;1.00
12557;DHT22;6344;49.932;8.308;2022-08-21T02:38:46;14.70;1.00
12557;DHT22;6344;49.932;8.308;2022-08-21T02:41:16;14.80;1.00
12557;DHT22;6344;49.932;8.308;2022-08-21T02:43:43;14.70;1.00
12557;DHT22;6344;49.932;8.308;2022-08-21T02:46:11;14.70;1.00
12557;DHT22;6344;49.932;8.308;2022-08-21T02:48:39;14.70;1.00
12557;DHT22;6344;49.932;8.308;2022-08-21T02:51:09;14.80;1.00
12557;DHT22;6344;49.932;8.308;2022-08-21T02:53:37;15.00;99.90
12557;DHT22;6344;49.932;8.308;2022-08-21T02:56:06;14.90;1.00
12557;DHT22;6344;49.932;8.308;2022-08-21T02:58:36;14.70;1.00
12557;DHT22;6344;49.932;8.308;2022-08-21T03:01:04;14.80;1.00
12557;DHT22;6344;49.932;8.308;2022-08-21T03:03:35;15.00;99.90
12557;DHT22;6344;49.932;8.308;2022-08-21T03:06:02;15.10;99.90
12557;DHT22;6344;49.932;8.308;2022-08-21T03:08:30;15.30;99.90
12557;DHT22;6344;49.932;8.308;2022-08-21T03:10:57;15.50;99.90
12557;DHT22;6344;49.932;8.308;2022-08-21T03:13:26;15.40;99.90
12557;DHT22;6344;49.932;8.308;2022-08-21T03:15:53;15.20;99.90
12557;DHT22;6344;49.932;8.308;2022-08-21T03:18:20;15.00;99.90
12557;DHT22;6344;49.932;8.308;2022-08-21T03:20:47;14.80;1.00
12557;DHT22;6344;49.932;8.308;2022-08-21T03:23:15;14.80;1.00
12557;DHT22;6344;49.932;8.308;2022-08-21T03:25:44;14.80;1.00
12557;DHT22;6344;49.932;8.308;2022-08-21T03:28:13;14.70;1.00
12557;DHT22;6344;49.932;8.308;2022-08-21T03:30:40;14.60;1.00
12557;DHT22;6344;49.932;8.308;2022-08-21T03:33:07;14.50;1.00
12557;DHT22;6344;49.932;8.308;2022-08-21T03:35:34;14.50;1.00
12557;DHT22;6344;49.932;8.308;2022-08-21T03:38:01;14.60;1.00
12557;DHT22;6344;49.932;8.308;2022-08-21T03:40:28;14.60;99.90
12557;DHT22;6344;49.932;8.308;2022-08-21T03:42:56;14.60;99.90
12557;DHT22;6344;49.932;8.308;2022-08-21T03:45:24;14.60;99.90
12557;DHT22;6344;49.932;8.308;2022-08-21T03:47:54;14.70;99.90
12557;DHT22;6344;49.932;8.308;2022-08-21T03:50:23;14.60;1.00
12557;DHT22;6344;49.932;8.308;2022-08-21T03:52:50;14.60;1.00
12557;DHT22;6344;49.932;8.308;2022-08-21T03:55:17;14.50;1.00
12557;DHT22;6344;49.932;8.308;2022-08-21T03:57:44;14.50;1.00
12557;DHT22;6344;49.932;8.308;2022-08-21T04:00:14;14.80;1.00
12557;DHT22;6344;49.932;8.308;2022-08-21T04:02:42;14.90;1.00
12557;DHT22;6344;49.932;8.308;2022-08-21T04:05:09;14.70;1.00
12557;DHT22;6344;49.932;8.308;2022-08-21T04:07:36;14.70;1.00
12557;DHT22;6344;49.932;8.308;2022-08-21T04:10:04;14.70;99.90
12557;DHT22;6344;49.932;8.308;2022-08-21T04:12:31;14.70;1.00
12557;DHT22;6344;49.932;8.308;2022-08-21T04:14:58;14.70;1.00
12557;DHT22;6344;49.932;8.308;2022-08-21T04:17:26;14.90;1.00
12557;DHT22;6344;49.932;8.308;2022-08-21T04:19:52;14.90;1.00
12557;DHT22;6344;49.932;8.308;2022-08-21T04:22:19;14.70;1.00
12557;DHT22;6344;49.932;8.308;2022-08-21T04:24:46;14.60;1.00
12557;DHT22;6344;49.932;8.308;2022-08-21T04:27:13;14.60;1.00
12557;DHT22;6344;49.932;8.308;2022-08-21T04:29:39;14.50;1.00
12557;DHT22;6344;49.932;8.308;2022-08-21T04:32:06;14.20;1.00
12557;DHT22;6344;49.932;8.308;2022-08-21T04:34:34;14.10;99.90
12557;DHT22;6344;49.932;8.308;2022-08-21T04:37:01;14.00;99.90
12557;DHT22;6344;49.932;8.308;2022-08-21T04:39:28;14.00;99.90
12557;DHT22;6344;49.932;8.308;2022-08-21T04:41:55;13.90;1.00
12557;DHT22;6344;49.932;8.308;2022-08-21T04:44:22;13.90;99.90
12557;DHT22;6344;49.932;8.308;2022-08-21T04:46:49;13.80;1.00
12557;DHT22;6344;49.932;8.308;2022-08-21T04:49:15;13.80;1.00
12557;DHT22;6344;49.932;8.308;2022-08-21T04:51:44;13.90;1.00
12557;DHT22;6344;49.932;8.308;2022-08-21T04:54:13;13.80;1.00
12557;DHT22;6344;49.932;8.308;2022-08-21T04:56:44;13.90;1.00
12557;DHT22;6344;49.932;8.308;2022-08-21T04:59:16;13.90;1.00
12557;DHT22;6344;49.932;8.308;2022-08-21T05:01:44;13.90;1.00
12557;DHT22;6344;49.932;8.308;2022-08-21T05:04:13;14.00;1.00
12557;DHT22;6344;49.932;8.308;2022-08-21T05:06:41;14.10;99.90
12557;DHT22;6344;49.932;8.308;2022-08-21T05:09:13;14.10;1.00
12557;DHT22;6344;49.932;8.308;2022-08-21T05:11:40;14.20;1.00
12557;DHT22;6344;49.932;8.308;2022-08-21T05:14:08;14.20;99.90
12557;DHT22;6344;49.932;8.308;2022-08-21T05:16:35;14.40;99.90
12557;DHT22;6344;49.932;8.308;2022-08-21T05:19:01;14.40;99.90
12557;DHT22;6344;49.932;8.308;2022-08-21T05:21:28;14.80;94.70
12557;DHT22;6344;49.932;8.308;2022-08-21T05:23:55;14.90;1.00
12557;DHT22;6344;49.932;8.308;2022-08-21T05:26:23;14.90;1.00
12557;DHT22;6344;49.932;8.308;2022-08-21T05:28:49;15.10;1.00
12557;DHT22;6344;49.932;8.308;2022-08-21T05:31:17;15.10;1.00
12557;DHT22;6344;49.932;8.308;2022-08-21T05:33:44;15.30;99.90
12557;DHT22;6344;49.932;8.308;2022-08-21T05:36:10;15.40;99.90
12557;DHT22;6344;49.932;8.308;2022-08-21T05:38:37;15.70;99.90
12557;DHT22;6344;49.932;8.308;2022-08-21T05:41:04;15.80;99.90
12557;DHT22;6344;49.932;8.308;2022-08-21T05:43:32;15.80;99.90
12557;DHT22;6344;49.932;8.308;2022-08-21T05:46:01;16.00;99.90
12557;DHT22;6344;49.932;8.308;2022-08-21T05:48:30;16.10;99.90
12557;DHT22;6344;49.932;8.308;2022-08-21T05:50:57;16.60;99.90
12557;DHT22;6344;49.932;8.308;2022-08-21T05:53:25;16.70;99.90
12557;DHT22;6344;49.932;8.308;2022-08-21T05:55:51;16.80;99.90
12557;DHT22;6344;49.932;8.308;2022-08-21T05:58:20;16.90;99.90
12557;DHT22;6344;49.932;8.308;2022-08-21T06:00:51;17.10;99.90
12557;DHT22;6344;49.932;8.308;2022-08-21T06:03:19;17.50;99.60
12557;DHT22;6344;49.932;8.308;2022-08-21T06:05:46;17.90;71.70
12557;DHT22;6344;49.932;8.308;2022-08-21T06:08:14;18.50;26.70
12557;DHT22;6344;49.932;8.308;2022-08-21T06:10:42;18.60;5.40
12557;DHT22;6344;49.932;8.308;2022-08-21T06:13:09;18.90;1.00
12557;DHT22;6344;49.932;8.308;2022-08-21T06:15:35;18.70;1.00
12557;DHT22;6344;49.932;8.308;2022-08-21T06:18:04;19.40;1.00
12557;DHT22;6344;49.932;8.308;2022-08-21T06:20:31;19.80;1.00
12557;DHT22;6344;49.932;8.308;2022-08-21T06:22:58;20.20;1.00
12557;DHT22;6344;49.932;8.308;2022-08-21T06:25:25;20.10;1.00
12557;DHT22;6344;49.932;8.308;2022-08-21T06:27:52;20.00;1.00
12557;DHT22;6344;49.932;8.308;2022-08-21T06:30:19;20.70;1.00
12557;DHT22;6344;49.932;8.308;2022-08-21T06:32:47;21.00;1.00
12557;DHT22;6344;49.932;8.308;2022-08-21T06:35:15;21.50;1.00
12557;DHT22;6344;49.932;8.308;2022-08-21T06:37:42;21.70;1.00
12557;DHT22;6344;49.932;8.308;2022-08-21T06:40:10;21.80;1.00
12557;DHT22;6344;49.932;8.308;2022-08-21T06:42:37;21.30;1.00
12557;DHT22;6344;49.932;8.308;2022-08-21T06:45:05;21.50;1.00
12557;DHT22;6344;49.932;8.308;2022-08-21T06:47:31;22.10;1.00
12557;DHT22;6344;49.932;8.308;2022-08-21T06:49:58;22.70;1.00
12557;DHT22;6344;49.932;8.308;2022-08-21T06:52:26;22.90;1.00
12557;DHT22;6344;49.932;8.308;2022-08-21T06:54:53;23.00;1.00
12557;DHT22;6344;49.932;8.308;2022-08-21T06:57:20;23.00;1.00
12557;DHT22;6344;49.932;8.308;2022-08-21T06:59:47;22.80;1.00
12557;DHT22;6344;49.932;8.308;2022-08-21T07:02:14;23.40;1.00
12557;DHT22;6344;49.932;8.308;2022-08-21T07:04:40;23.60;1.00
12557;DHT22;6344;49.932;8.308;2022-08-21T07:07:07;23.60;1.00
12557;DHT22;6344;49.932;8.308;2022-08-21T07:09:35;24.00;1.00
12557;DHT22;6344;49.932;8.308;2022-08-21T07:12:03;24.60;1.00
12557;DHT22;6344;49.932;8.308;2022-08-21T07:14:29;25.30;1.00
12557;DHT22;6344;49.932;8.308;2022-08-21T07:16:56;25.60;1.00
12557;DHT22;6344;49.932;8.308;2022-08-21T07:19:23;25.60;1.00
12557;DHT22;6344;49.932;8.308;2022-08-21T07:21:50;25.80;1.00
12557;DHT22;6344;49.932;8.308;2022-08-21T07:24:16;26.20;1.00
12557;DHT22;6344;49.932;8.308;2022-08-21T07:26:45;26.20;1.00
12557;DHT22;6344;49.932;8.308;2022-08-21T07:29:11;26.10;1.00
12557;DHT22;6344;49.932;8.308;2022-08-21T07:31:38;26.60;1.00
12557;DHT22;6344;49.932;8.308;2022-08-21T07:34:05;26.90;1.00
12557;DHT22;6344;49.932;8.308;2022-08-21T07:36:31;27.00;1.00
12557;DHT22;6344;49.932;8.308;2022-08-21T07:38:58;26.60;1.00
12557;DHT22;6344;49.932;8.308;2022-08-21T07:41:27;27.00;1.00
12557;DHT22;6344;49.932;8.308;2022-08-21T07:43:55;26.60;1.00
12557;DHT22;6344;49.932;8.308;2022-08-21T07:46:23;26.90;1.00
12557;DHT22;6344;49.932;8.308;2022-08-21T07:48:50;27.40;1.00
12557;DHT22;6344;49.932;8.308;2022-08-21T07:51:18;27.40;1.00
12557;DHT22;6344;49.932;8.308;2022-08-21T07:53:48;27.70;1.00
12557;DHT22;6344;49.932;8.308;2022-08-21T07:56:15;28.30;1.00
12557;DHT22;6344;49.932;8.308;2022-08-21T07:58:42;28.60;1.00
12557;DHT22;6344;49.932;8.308;2022-08-21T08:01:10;28.20;1.00
12557;DHT22;6344;49.932;8.308;2022-08-21T08:03:37;28.20;1.00
12557;DHT22;6344;49.932;8.308;2022-08-21T08:06:05;28.70;1.00
12557;DHT22;6344;49.932;8.308;2022-08-21T08:08:34;28.70;1.00
12557;DHT22;6344;49.932;8.308;2022-08-21T08:11:00;28.20;1.00
12557;DHT22;6344;49.932;8.308;2022-08-21T08:13:27;28.90;1.00
12557;DHT22;6344;49.932;8.308;2022-08-21T08:15:54;28.80;1.00
12557;DHT22;6344;49.932;8.308;2022-08-21T08:18:22;29.30;1.00
12557;DHT22;6344;49.932;8.308;2022-08-21T08:20:49;29.30;1.00
12557;DHT22;6344;49.932;8.308;2022-08-21T08:23:15;30.10;1.00
12557;DHT22;6344;49.932;8.308;2022-08-21T08:25:42;29.20;1.00
12557;DHT22;6344;49.932;8.308;2022-08-21T08:28:09;29.70;1.00
12557;DHT22;6344;49.932;8.308;2022-08-21T08:30:35;30.10;1.00
12557;DHT22;6344;49.932;8.308;2022-08-21T08:33:02;30.20;1.00
12557;DHT22;6344;49.932;8.308;2022-08-21T08:35:30;30.30;1.00
12557;DHT22;6344;49.932;8.308;2022-08-21T08:37:58;30.70;1.00
12557;DHT22;6344;49.932;8.308;2022-08-21T08:40:30;30.40;1.00
12557;DHT22;6344;49.932;8.308;2022-08-21T08:42:58;30.60;1.00
12557;DHT22;6344;49.932;8.308;2022-08-21T08:45:26;31.40;1.00
12557;DHT22;6344;49.932;8.308;2022-08-21T08:47:56;31.40;1.00
12557;DHT22;6344;49.932;8.308;2022-08-21T08:50:31;31.40;1.00
12557;DHT22;6344;49.932;8.308;2022-08-21T08:53:08;31.90;1.00
12557;DHT22;6344;49.932;8.308;2022-08-21T08:55:41;31.90;1.00
12557;DHT22;6344;49.932;8.308;2022-08-21T08:58:12;31.70;1.00
12557;DHT22;6344;49.932;8.308;2022-08-21T09:00:40;30.70;1.00
12557;DHT22;6344;49.932;8.308;2022-08-21T09:03:07;30.90;1.00
12557;DHT22;6344;49.932;8.308;2022-08-21T09:05:40;30.90;1.00
12557;DHT22;6344;49.932;8.308;2022-08-21T09:08:32;30.70;1.00
12557;DHT22;6344;49.932;8.308;2022-08-21T09:11:09;31.20;1.00
12557;DHT22;6344;49.932;8.308;2022-08-21T09:13:46;31.50;1.00
12557;DHT22;6344;49.932;8.308;2022-08-21T09:16:23;32.00;1.00
12557;DHT22;6344;49.932;8.308;2022-08-21T09:18:58;32.00;1.00
12557;DHT22;6344;49.932;8.308;2022-08-21T09:21:35;32.90;1.00
12557;DHT22;6344;49.932;8.308;2022-08-21T09:24:18;33.20;1.00
12557;DHT22;6344;49.932;8.308;2022-08-21T09:27:02;33.40;1.00
12557;DHT22;6344;49.932;8.308;2022-08-21T09:29:34;34.10;1.00
12557;DHT22;6344;49.932;8.308;2022-08-21T09:32:15;34.50;1.00
12557;DHT22;6344;49.932;8.308;2022-08-21T09:34:55;34.00;1.00
12557;DHT22;6344;49.932;8.308;2022-08-21T09:37:23;33.70;1.00
12557;DHT22;6344;49.932;8.308;2022-08-21T09:39:51;33.50;1.00
12557;DHT22;6344;49.932;8.308;2022-08-21T09:42:24;32.00;1.00
12557;DHT22;6344;49.932;8.308;2022-08-21T09:45:11;31.90;1.00
12557;DHT22;6344;49.932;8.308;2022-08-21T09:47:40;31.90;1.00
12557;DHT22;6344;49.932;8.308;2022-08-21T09:50:11;32.50;1.00
12557;DHT22;6344;49.932;8.308;2022-08-21T09:52:43;33.00;1.00
12557;DHT22;6344;49.932;8.308;2022-08-21T09:55:18;33.40;1.00
12557;DHT22;6344;49.932;8.308;2022-08-21T09:57:59;32.30;1.00
12557;DHT22;6344;49.932;8.308;2022-08-21T10:00:30;32.90;1.00
12557;DHT22;6344;49.932;8.308;2022-08-21T10:03:13;32.80;1.00
12557;DHT22;6344;49.932;8.308;2022-08-21T10:05:51;32.40;1.00
12557;DHT22;6344;49.932;8.308;2022-08-21T10:08:19;32.60;1.00
12557;DHT22;6344;49.932;8.308;2022-08-21T10:10:50;32.60;1.00
12557;DHT22;6344;49.932;8.308;2022-08-21T10:13:22;33.00;1.00
12557;DHT22;6344;49.932;8.308;2022-08-21T10:16:00;34.00;1.00
12557;DHT22;6344;49.932;8.308;2022-08-21T10:18:39;33.50;1.00
12557;DHT22;6344;49.932;8.308;2022-08-21T10:21:23;33.20;1.00
12557;DHT22;6344;49.932;8.308;2022-08-21T10:24:01;32.00;1.00
12557;DHT22;6344;49.932;8.308;2022-08-21T10:26:38;31.50;1.00
12557;DHT22;6344;49.932;8.308;2022-08-21T10:29:17;31.60;1.00
12557;DHT22;6344;49.932;8.308;2022-08-21T10:31:52;31.00;1.00
12557;DHT22;6344;49.932;8.308;2022-08-21T10:34:36;29.90;1.00
12557;DHT22;6344;49.932;8.308;2022-08-21T10:37:16;29.50;1.00
12557;DHT22;6344;49.932;8.308;2022-08-21T10:39:50;30.20;1.00
12557;DHT22;6344;49.932;8.308;2022-08-21T10:42:30;31.40;1.00
12557;DHT22;6344;49.932;8.308;2022-08-21T10:45:09;32.40;1.00
12557;DHT22;6344;49.932;8.308;2022-08-21T10:47:41;32.20;1.00
12557;DHT22;6344;49.932;8.308;2022-08-21T10:50:19;33.00;1.00
12557;DHT22;6344;49.932;8.308;2022-08-21T10:53:16;33.90;1.00
12557;DHT22;6344;49.932;8.308;2022-08-21T10:55:52;32.00;1.00
12557;DHT22;6344;49.932;8.308;2022-08-21T10:58:28;31.60;1.00
12557;DHT22;6344;49.932;8.308;2022-08-21T11:00:58;32.30;1.00
12557;DHT22;6344;49.932;8.308;2022-08-21T11:03:35;32.00;1.00
12557;DHT22;6344;49.932;8.308;2022-08-21T11:06:11;31.40;1.00
12557;DHT22;6344;49.932;8.308;2022-08-21T11:08:41;32.00;1.00
12557;DHT22;6344;49.932;8.308;2022-08-21T11:11:12;33.20;1.00
12557;DHT22;6344;49.932;8.308;2022-08-21T11:13:42;32.60;1.00
12557;DHT22;6344;49.932;8.308;2022-08-21T11:16:17;32.50;1.00
12557;DHT22;6344;49.932;8.308;2022-08-21T11:18:49;32.60;1.00
12557;DHT22;6344;49.932;8.308;2022-08-21T11:21:30;32.50;1.00
12557;DHT22;6344;49.932;8.308;2022-08-21T11:24:03;33.20;1.00
12557;DHT22;6344;49.932;8.308;2022-08-21T11:26:35;33.00;1.00
12557;DHT22;6344;49.932;8.308;2022-08-21T11:29:09;33.90;1.00
12557;DHT22;6344;49.932;8.308;2022-08-21T11:31:47;34.50;1.00
12557;DHT22;6344;49.932;8.308;2022-08-21T11:34:29;33.90;1.00
12557;DHT22;6344;49.932;8.308;2022-08-21T11:37:02;34.60;1.00
12557;DHT22;6344;49.932;8.308;2022-08-21T11:39:37;35.40;1.00
12557;DHT22;6344;49.932;8.308;2022-08-21T11:42:15;35.30;1.00
12557;DHT22;6344;49.932;8.308;2022-08-21T11:44:49;34.10;1.00
12557;DHT22;6344;49.932;8.308;2022-08-21T11:47:25;33.60;1.00
12557;DHT22;6344;49.932;8.308;2022-08-21T11:50:09;33.30;1.00
12557;DHT22;6344;49.932;8.308;2022-08-21T11:52:41;33.80;1.00
12557;DHT22;6344;49.932;8.308;2022-08-21T11:55:14;33.00;1.00
12557;DHT22;6344;49.932;8.308;2022-08-21T11:57:49;33.80;1.00
12557;DHT22;6344;49.932;8.308;2022-08-21T12:00:19;34.30;1.00
12557;DHT22;6344;49.932;8.308;2022-08-21T12:02:54;34.90;1.00
12557;DHT22;6344;49.932;8.308;2022-08-21T12:05:32;36.00;1.00
12557;DHT22;6344;49.932;8.308;2022-08-21T12:08:05;36.60;1.00
12557;DHT22;6344;49.932;8.308;2022-08-21T12:10:36;36.10;1.00
12557;DHT22;6344;49.932;8.308;2022-08-21T12:13:08;35.80;1.00
12557;DHT22;6344;49.932;8.308;2022-08-21T12:18:06;35.80;1.00
12557;DHT22;6344;49.932;8.308;2022-08-21T12:20:37;33.80;1.00
12557;DHT22;6344;49.932;8.308;2022-08-21T12:23:17;33.70;1.00
12557;DHT22;6344;49.932;8.308;2022-08-21T12:25:47;34.50;1.00
12557;DHT22;6344;49.932;8.308;2022-08-21T12:28:25;35.00;1.00
12557;DHT22;6344;49.932;8.308;2022-08-21T12:30:52;34.50;1.00
12557;DHT22;6344;49.932;8.308;2022-08-21T12:33:23;35.50;1.00
12557;DHT22;6344;49.932;8.308;2022-08-21T12:35:51;36.30;1.00
12557;DHT22;6344;49.932;8.308;2022-08-21T12:38:23;36.40;1.00
12557;DHT22;6344;49.932;8.308;2022-08-21T12:40:55;35.90;1.00
12557;DHT22;6344;49.932;8.308;2022-08-21T12:43:28;34.90;1.00
12557;DHT22;6344;49.932;8.308;2022-08-21T12:45:55;35.00;1.00
12557;DHT22;6344;49.932;8.308;2022-08-21T12:48:29;36.10;1.00
12557;DHT22;6344;49.932;8.308;2022-08-21T12:51:04;35.20;1.00
12557;DHT22;6344;49.932;8.308;2022-08-21T12:53:41;35.50;1.00
12557;DHT22;6344;49.932;8.308;2022-08-21T12:56:11;34.60;1.00
12557;DHT22;6344;49.932;8.308;2022-08-21T12:58:40;32.50;1.00
12557;DHT22;6344;49.932;8.308;2022-08-21T13:01:15;32.40;1.00
12557;DHT22;6344;49.932;8.308;2022-08-21T13:03:44;33.10;1.00
12557;DHT22;6344;49.932;8.308;2022-08-21T13:06:15;34.30;1.00
12557;DHT22;6344;49.932;8.308;2022-08-21T13:08:45;34.30;1.00
12557;DHT22;6344;49.932;8.308;2022-08-21T13:11:16;33.50;1.00
12557;DHT22;6344;49.932;8.308;2022-08-21T13:13:48;32.50;1.00
12557;DHT22;6344;49.932;8.308;2022-08-21T13:16:19;32.40;1.00
12557;DHT22;6344;49.932;8.308;2022-08-21T13:18:54;33.20;1.00
12557;DHT22;6344;49.932;8.308;2022-08-21T13:21:27;34.10;1.00
12557;DHT22;6344;49.932;8.308;2022-08-21T13:24:15;35.30;1.00
12557;DHT22;6344;49.932;8.308;2022-08-21T13:26:42;35.50;1.00
12557;DHT22;6344;49.932;8.308;2022-08-21T13:29:11;35.60;1.00
12557;DHT22;6344;49.932;8.308;2022-08-21T13:31:39;35.40;1.00
12557;DHT22;6344;49.932;8.308;2022-08-21T13:34:08;34.40;1.00
12557;DHT22;6344;49.932;8.308;2022-08-21T13:36:40;34.80;1.00
12557;DHT22;6344;49.932;8.308;2022-08-21T13:39:12;34.80;1.00
12557;DHT22;6344;49.932;8.308;2022-08-21T13:41:42;34.70;1.00
12557;DHT22;6344;49.932;8.308;2022-08-21T13:44:15;35.40;1.00
12557;DHT22;6344;49.932;8.308;2022-08-21T13:46:43;36.00;1.00
12557;DHT22;6344;49.932;8.308;2022-08-21T13:49:13;35.10;1.00
12557;DHT22;6344;49.932;8.308;2022-08-21T13:51:41;35.70;1.00
12557;DHT22;6344;49.932;8.308;2022-08-21T13:54:23;37.10;1.00
12557;DHT22;6344;49.932;8.308;2022-08-21T13:56:50;37.50;1.00
12557;DHT22;6344;49.932;8.308;2022-08-21T13:59:27;37.40;1.00
12557;DHT22;6344;49.932;8.308;2022-08-21T14:01:57;37.70;1.00
12557;DHT22;6344;49.932;8.308;2022-08-21T14:04:31;37.90;1.00
12557;DHT22;6344;49.932;8.308;2022-08-21T14:06:59;37.80;1.00
12557;DHT22;6344;49.932;8.308;2022-08-21T14:09:30;37.20;1.00
12557;DHT22;6344;49.932;8.308;2022-08-21T14:11:58;36.20;1.00
12557;DHT22;6344;49.932;8.308;2022-08-21T14:14:29;37.10;1.00
12557;DHT22;6344;49.932;8.308;2022-08-21T14:16:58;37.00;1.00
12557;DHT22;6344;49.932;8.308;2022-08-21T14:19:27;37.20;1.00
12557;DHT22;6344;49.932;8.308;2022-08-21T14:21:54;37.70;1.00
12557;DHT22;6344;49.932;8.308;2022-08-21T14:24:30;36.90;1.00
12557;DHT22;6344;49.932;8.308;2022-08-21T14:27:02;35.90;1.00
12557;DHT22;6344;49.932;8.308;2022-08-21T14:29:33;36.00;1.00
12557;DHT22;6344;49.932;8.308;2022-08-21T14:32:09;36.20;1.00
12557;DHT22;6344;49.932;8.308;2022-08-21T14:34:36;35.90;1.00
12557;DHT22;6344;49.932;8.308;2022-08-21T14:37:03;34.20;1.00
12557;DHT22;6344;49.932;8.308;2022-08-21T14:39:31;34.90;1.00
12557;DHT22;6344;49.932;8.308;2022-08-21T14:41:59;35.00;1.00
12557;DHT22;6344;49.932;8.308;2022-08-21T14:44:26;35.30;1.00
12557;DHT22;6344;49.932;8.308;2022-08-21T14:46:53;35.40;1.00
12557;DHT22;6344;49.932;8.308;2022-08-21T14:49:21;36.00;1.00
12557;DHT22;6344;49.932;8.308;2022-08-21T14:51:48;36.80;1.00
12557;DHT22;6344;49.932;8.308;2022-08-21T14:54:22;36.90;1.00
12557;DHT22;6344;49.932;8.308;2022-08-21T14:56:50;36.60;1.00
12557;DHT22;6344;49.932;8.308;2022-08-21T14:59:17;37.40;1.00
12557;DHT22;6344;49.932;8.308;2022-08-21T15:01:46;37.60;1.00
12557;DHT22;6344;49.932;8.308;2022-08-21T15:04:13;37.60;1.00
12557;DHT22;6344;49.932;8.308;2022-08-21T15:06:40;37.80;1.00
12557;DHT22;6344;49.932;8.308;2022-08-21T15:09:06;37.40;1.00
12557;DHT22;6344;49.932;8.308;2022-08-21T15:11:33;36.90;1.00
12557;DHT22;6344;49.932;8.308;2022-08-21T15:14:03;36.30;1.00
12557;DHT22;6344;49.932;8.308;2022-08-21T15:16:33;35.80;1.00
12557;DHT22;6344;49.932;8.308;2022-08-21T15:18:59;35.70;1.00
12557;DHT22;6344;49.932;8.308;2022-08-21T15:21:26;35.50;1.00
12557;DHT22;6344;49.932;8.308;2022-08-21T15:23:53;35.20;1.00
12557;DHT22;6344;49.932;8.308;2022-08-21T15:26:21;34.40;1.00
12557;DHT22;6344;49.932;8.308;2022-08-21T15:28:49;34.20;1.00
12557;DHT22;6344;49.932;8.308;2022-08-21T15:31:17;33.90;1.00
12557;DHT22;6344;49.932;8.308;2022-08-21T15:33:44;34.00;1.00
12557;DHT22;6344;49.932;8.308;2022-08-21T15:36:11;33.90;1.00
12557;DHT22;6344;49.932;8.308;2022-08-21T15:38:37;34.00;1.00
12557;DHT22;6344;49.932;8.308;2022-08-21T15:41:05;33.50;1.00
12557;DHT22;6344;49.932;8.308;2022-08-21T15:43:36;32.50;1.00
12557;DHT22;6344;49.932;8.308;2022-08-21T15:46:04;31.90;1.00
12557;DHT22;6344;49.932;8.308;2022-08-21T15:48:32;31.80;1.00
12557;DHT22;6344;49.932;8.308;2022-08-21T15:50:59;31.60;1.00
12557;DHT22;6344;49.932;8.308;2022-08-21T15:53:26;31.30;1.00
12557;DHT22;6344;49.932;8.308;2022-08-21T15:55:53;30.70;1.00
12557;DHT22;6344;49.932;8.308;2022-08-21T15:58:21;30.50;1.00
12557;DHT22;6344;49.932;8.308;2022-08-21T16:00:48;30.60;1.00
12557;DHT22;6344;49.932;8.308;2022-08-21T16:03:16;30.10;1.00
12557;DHT22;6344;49.932;8.308;2022-08-21T16:05:48;30.40;1.00
12557;DHT22;6344;49.932;8.308;2022-08-21T16:08:17;30.70;1.00
12557;DHT22;6344;49.932;8.308;2022-08-21T16:10:44;30.60;1.00
12557;DHT22;6344;49.932;8.308;2022-08-21T16:13:16;30.60;1.00
12557;DHT22;6344;49.932;8.308;2022-08-21T16:15:43;30.40;1.00
12557;DHT22;6344;49.932;8.308;2022-08-21T16:18:10;30.60;1.00